Time;durP1;ratioP1;P1;durP2;ratioP2;P2;SDS_P1;SDS_P2;PMS_P1;PMS_P2;Temp;Humidity;BMP_temperature;BMP_pressure;BME280_temperature;BME280_humidity;BME280_pressure;Samples;Min_cycle;Max_cycle;Signal;HPM_P1;HPM_P2
2023/06/10 00:01:37;;;;;;;4.15;3.50;;;;;;;;;;4956170;28;20047;-84
2023/06/10 00:04:22;;;;;;;5.13;4.00;;;;;;;;;;4969750;28;20050;-84
2023/06/10 00:07:08;;;;;;;7.85;4.15;;;;;;;;;;4956535;28;20488;-85
2023/06/10 00:09:55;;;;;;;5.47;3.78;;;;;;;;;;4982819;28;20039;-84
2023/06/10 00:12:42;;;;;;;4.78;3.97;;;;;;;;;;4956170;28;20046;-84
2023/06/10 00:15:26;;;;;;;4.43;3.50;;;;;;;;;;4982957;28;20047;-84
2023/06/10 00:18:12;;;;;;;6.85;3.70;;;;;;;;;;4956493;28;20039;-84
2023/06/10 00:21:04;;;;;;;9.63;3.63;;;;;;;;;;4969543;28;20050;-84
2023/06/10 00:23:49;;;;;;;7.40;3.58;;;;;;;;;;4955750;28;20042;-84
2023/06/10 00:26:35;;;;;;;5.22;3.97;;;;;;;;;;4969560;28;20051;-84
2023/06/10 00:29:20;;;;;;;6.85;3.53;;;;;;;;;;4955693;28;20395;-84
2023/06/10 00:32:05;;;;;;;5.22;3.92;;;;;;;;;;4968968;28;20047;-84
2023/06/10 00:34:53;;;;;;;7.07;3.92;;;;;;;;;;4969628;28;20046;-83
2023/06/10 00:37:39;;;;;;;7.93;4.25;;;;;;;;;;4961704;28;20054;-84
2023/06/10 00:40:25;;;;;;;4.85;3.97;;;;;;;;;;4956284;28;20047;-84
2023/06/10 00:43:10;;;;;;;7.47;4.20;;;;;;;;;;4968912;28;20198;-83
2023/06/10 00:45:56;;;;;;;5.88;4.10;;;;;;;;;;4956126;28;20043;-83
2023/06/10 00:48:43;;;;;;;7.82;4.00;;;;;;;;;;4982685;28;20471;-84
2023/06/10 00:51:28;;;;;;;7.47;3.78;;;;;;;;;;4955437;28;20046;-84
2023/06/10 00:54:14;;;;;;;6.82;4.53;;;;;;;;;;4969025;28;20408;-83
2023/06/10 00:57:02;;;;;;;4.43;3.90;;;;;;;;;;4955598;28;20042;-83
2023/06/10 00:59:49;;;;;;;6.72;3.85;;;;;;;;;;4956249;28;20038;-84
2023/06/10 01:02:35;;;;;;;6.55;4.20;;;;;;;;;;4968929;28;20404;-83
2023/06/10 01:05:20;;;;;;;9.88;4.00;;;;;;;;;;4968532;28;20487;-84
2023/06/10 01:08:23;;;;;;;4.80;3.72;;;;;;;;;;4955878;28;20051;-84
2023/06/10 01:11:16;;;;;;;;;;;;;;;;;;4969036;28;20046;-84
2023/06/10 01:14:02;;;;;;;9.93;3.63;;;;;;;;;;4982301;28;20359;-84
2023/06/10 01:16:48;;;;;;;4.90;3.97;;;;;;;;;;4968658;28;20069;-83
2023/06/10 01:19:33;;;;;;;7.03;3.72;;;;;;;;;;4954624;28;20035;-83
2023/06/10 01:22:18;;;;;;;6.10;4.13;;;;;;;;;;4955164;28;20415;-84
2023/06/10 01:25:05;;;;;;;7.32;4.22;;;;;;;;;;4968156;28;20050;-83
2023/06/10 01:27:51;;;;;;;9.02;4.10;;;;;;;;;;4968723;28;20501;-84
2023/06/10 01:30:48;;;;;;;5.68;4.50;;;;;;;;;;4955046;28;20051;-84
2023/06/10 01:33:46;;;;;;;6.22;4.50;;;;;;;;;;4968090;28;20047;-83
2023/06/10 01:36:34;;;;;;;5.53;4.70;;;;;;;;;;4952701;28;20039;-83
2023/06/10 01:39:22;;;;;;;5.75;4.70;;;;;;;;;;4968022;28;20043;-83
2023/06/10 01:42:09;;;;;;;8.50;5.25;;;;;;;;;;4954879;28;20487;-83
2023/06/10 01:44:55;;;;;;;5.85;5.13;;;;;;;;;;4954756;28;20038;-83
2023/06/10 01:47:40;;;;;;;7.25;5.07;;;;;;;;;;4954005;28;20038;-84
2023/06/10 01:50:26;;;;;;;7.97;5.90;;;;;;;;;;4967757;28;20046;-84
2023/06/10 01:53:12;;;;;;;7.85;5.85;;;;;;;;;;4954277;28;20358;-83
2023/06/10 01:55:58;;;;;;;8.68;5.90;;;;;;;;;;4954779;28;20447;-83
2023/06/10 01:58:43;;;;;;;6.70;6.00;;;;;;;;;;4954453;28;20484;-83
2023/06/10 02:01:29;;;;;;;9.27;6.70;;;;;;;;;;4967433;28;20076;-83
2023/06/10 02:04:14;;;;;;;8.32;5.97;;;;;;;;;;4954302;28;20051;-83
2023/06/10 02:07:04;;;;;;;11.52;5.90;;;;;;;;;;4953800;28;20043;-83
2023/06/10 02:09:49;;;;;;;10.95;6.97;;;;;;;;;;4954322;28;20043;-83
2023/06/10 02:12:35;;;;;;;10.85;7.57;;;;;;;;;;4967568;28;20039;-84
2023/06/10 02:15:20;;;;;;;13.25;9.15;;;;;;;;;;4944101;28;20046;-84
2023/06/10 02:18:05;;;;;;;15.15;10.65;;;;;;;;;;4961619;28;20051;-84
2023/06/10 02:20:50;;;;;;;17.70;11.43;;;;;;;;;;4948081;28;20488;-83
2023/06/10 02:23:35;;;;;;;16.02;11.07;;;;;;;;;;4970036;28;20038;-84
2023/06/10 02:26:25;;;;;;;12.02;8.82;;;;;;;;;;4968949;28;20043;-84
2023/06/10 02:29:10;;;;;;;14.95;8.43;;;;;;;;;;4976774;28;20042;-83
2023/06/10 02:31:56;;;;;;;15.07;7.65;;;;;;;;;;4974463;28;20043;-83
2023/06/10 02:34:43;;;;;;;8.65;6.70;;;;;;;;;;4975853;28;20046;-84
2023/06/10 02:37:28;;;;;;;7.50;5.93;;;;;;;;;;4945721;28;20059;-84
2023/06/10 02:40:15;;;;;;;9.82;7.20;;;;;;;;;;4969867;28;20042;-83
2023/06/10 02:43:00;;;;;;;14.32;7.78;;;;;;;;;;4972852;28;20046;-83
2023/06/10 02:45:45;;;;;;;11.98;7.03;;;;;;;;;;4986145;28;20051;-84
2023/06/10 02:48:31;;;;;;;15.95;7.15;;;;;;;;;;4956349;28;20404;-84
2023/06/10 02:51:16;;;;;;;11.30;7.10;;;;;;;;;;4960595;28;20051;-84
2023/06/10 02:54:05;;;;;;;12.65;6.82;;;;;;;;;;4945706;28;20039;-84
2023/06/10 02:56:52;;;;;;;12.40;7.38;;;;;;;;;;4959266;28;20051;-84
2023/06/10 02:59:41;;;;;;;8.88;6.90;;;;;;;;;;4946832;28;20392;-84
2023/06/10 03:02:28;;;;;;;9.40;5.63;;;;;;;;;;4947340;28;20043;-84
2023/06/10 03:05:14;;;;;;;7.40;4.85;;;;;;;;;;4933687;28;20051;-84
2023/06/10 03:08:04;;;;;;;5.78;4.80;;;;;;;;;;4947442;28;20047;-84
2023/06/10 03:10:51;;;;;;;5.88;4.90;;;;;;;;;;4946644;29;20047;-84
2023/06/10 03:13:39;;;;;;;15.13;5.32;;;;;;;;;;4947450;28;20043;-84
2023/06/10 03:16:25;;;;;;;6.85;5.10;;;;;;;;;;4947524;29;20039;-84
2023/06/10 03:19:10;;;;;;;10.23;5.55;;;;;;;;;;4933470;29;20047;-84
2023/06/10 03:22:08;;;;;;;8.57;4.95;;;;;;;;;;4934447;29;20403;-84
2023/06/10 03:24:57;;;;;;;6.95;4.28;;;;;;;;;;4960532;29;20047;-84
2023/06/10 03:27:44;;;;;;;7.53;4.65;;;;;;;;;;4934360;29;20054;-84
2023/06/10 03:30:30;;;;;;;5.88;4.70;;;;;;;;;;4947346;29;20047;-84
2023/06/10 03:33:16;;;;;;;7.15;4.85;;;;;;;;;;4934039;29;20039;-84
2023/06/10 03:36:02;;;;;;;7.00;4.70;;;;;;;;;;4933250;29;20408;-85
2023/06/10 03:38:50;;;;;;;6.85;4.60;;;;;;;;;;4933998;28;20392;-84
2023/06/10 03:41:36;;;;;;;7.03;5.03;;;;;;;;;;4947203;29;20047;-84
2023/06/10 03:44:21;;;;;;;6.75;4.90;;;;;;;;;;4934305;29;20476;-84
2023/06/10 03:47:07;;;;;;;8.90;4.55;;;;;;;;;;4946939;29;20039;-84
2023/06/10 03:49:55;;;;;;;6.88;4.65;;;;;;;;;;4960497;29;20039;-84
2023/06/10 03:52:41;;;;;;;6.53;4.95;;;;;;;;;;4946826;29;20043;-84
2023/06/10 03:55:28;;;;;;;7.47;4.75;;;;;;;;;;4934270;29;20047;-84
2023/06/10 03:58:14;;;;;;;14.30;5.07;;;;;;;;;;4947606;29;20047;-84
2023/06/10 04:01:01;;;;;;;8.35;4.80;;;;;;;;;;4933630;29;20043;-84
2023/06/10 04:03:53;;;;;;;11.05;5.10;;;;;;;;;;4934423;29;20400;-84
2023/06/10 04:06:39;;;;;;;7.07;4.30;;;;;;;;;;4946898;28;20051;-84
2023/06/10 04:09:25;;;;;;;6.28;4.60;;;;;;;;;;4960657;29;20043;-84
2023/06/10 04:12:10;;;;;;;8.48;4.65;;;;;;;;;;4937254;28;20039;-84
2023/06/10 04:14:57;;;;;;;7.97;4.95;;;;;;;;;;4937123;28;20051;-84
2023/06/10 04:17:42;;;;;;;8.57;5.28;;;;;;;;;;4937484;28;20379;-84
2023/06/10 04:20:29;;;;;;;10.60;4.75;;;;;;;;;;4950338;28;20047;-84
2023/06/10 04:23:14;;;;;;;7.28;5.40;;;;;;;;;;4936984;28;20480;-84
2023/06/10 04:26:02;;;;;;;6.20;4.57;;;;;;;;;;4950272;28;20402;-84
2023/06/10 04:28:47;;;;;;;5.05;4.28;;;;;;;;;;4936520;28;20043;-84
2023/06/10 04:31:33;;;;;;;7.07;4.63;;;;;;;;;;4950393;28;20047;-84
2023/06/10 04:34:19;;;;;;;7.38;4.63;;;;;;;;;;4949998;28;20054;-84
2023/06/10 04:37:05;;;;;;;9.07;4.25;;;;;;;;;;4942437;29;20051;-84
2023/06/10 04:39:49;;;;;;;13.20;4.15;;;;;;;;;;4936603;28;20047;-84
2023/06/10 04:42:35;;;;;;;6.47;4.47;;;;;;;;;;4962938;28;20043;-84
2023/06/10 04:45:21;;;;;;;6.97;4.00;;;;;;;;;;4936715;28;20050;-84
2023/06/10 04:48:07;;;;;;;9.88;4.93;;;;;;;;;;4949582;28;20055;-84
2023/06/10 04:50:52;;;;;;;10.02;4.78;;;;;;;;;;4936102;28;20400;-84
2023/06/10 04:53:37;;;;;;;9.43;4.53;;;;;;;;;;4936356;28;20488;-84
2023/06/10 04:56:22;;;;;;;8.18;4.20;;;;;;;;;;4949419;28;20035;-84
2023/06/10 04:59:08;;;;;;;5.45;4.30;;;;;;;;;;4949764;28;20043;-84
2023/06/10 05:01:54;;;;;;;6.53;4.82;;;;;;;;;;4949341;28;20047;-84
2023/06/10 05:04:39;;;;;;;6.68;4.10;;;;;;;;;;4949491;28;20043;-84
2023/06/10 05:07:25;;;;;;;7.82;4.20;;;;;;;;;;4936346;28;20068;-84
2023/06/10 05:10:12;;;;;;;8.05;4.32;;;;;;;;;;4949124;28;20051;-84
2023/06/10 05:12:58;;;;;;;5.25;4.05;;;;;;;;;;4935969;28;20039;-84
2023/06/10 05:15:44;;;;;;;7.20;5.00;;;;;;;;;;4949707;28;20387;-84
2023/06/10 05:18:29;;;;;;;8.88;5.00;;;;;;;;;;4935514;28;20039;-84
2023/06/10 05:21:15;;;;;;;8.13;5.22;;;;;;;;;;4936487;28;20484;-84
2023/06/10 05:24:00;;;;;;;6.25;4.97;;;;;;;;;;4935132;28;20047;-84
2023/06/10 05:26:47;;;;;;;8.48;4.90;;;;;;;;;;4949268;28;20047;-84
2023/06/10 05:29:33;;;;;;;9.40;4.75;;;;;;;;;;4942623;29;20396;-84
2023/06/10 05:32:19;;;;;;;6.03;4.68;;;;;;;;;;4949446;28;20051;-84
2023/06/10 05:35:06;;;;;;;6.18;4.60;;;;;;;;;;4949141;28;20472;-85
2023/06/10 05:37:51;;;;;;;8.05;4.15;;;;;;;;;;4943275;29;20051;-84
2023/06/10 05:40:36;;;;;;;7.55;4.53;;;;;;;;;;4935552;28;20043;-84
2023/06/10 05:43:22;;;;;;;4.78;3.97;;;;;;;;;;4948891;28;20047;-84
2023/06/10 05:46:08;;;;;;;7.53;4.20;;;;;;;;;;4948482;28;20047;-84
2023/06/10 05:48:53;;;;;;;10.18;4.53;;;;;;;;;;4948903;28;20047;-84
2023/06/10 05:51:39;;;;;;;8.48;4.40;;;;;;;;;;4942051;29;20043;-85
2023/06/10 05:54:26;;;;;;;4.97;3.90;;;;;;;;;;4935486;28;20488;-82
2023/06/10 05:57:11;;;;;;;4.68;3.50;;;;;;;;;;4935398;28;20035;-82
2023/06/10 05:59:57;;;;;;;5.50;3.53;;;;;;;;;;4955208;29;20126;-82
2023/06/10 06:02:42;;;;;;;8.32;3.35;;;;;;;;;;4943961;28;20400;-83
2023/06/10 06:05:34;;;;;;;6.75;3.45;;;;;;;;;;4971364;28;20050;-82
2023/06/10 06:08:20;;;;;;;5.75;3.92;;;;;;;;;;4954274;28;20035;-84
2023/06/10 06:11:06;;;;;;;5.18;3.70;;;;;;;;;;4934735;28;20051;-85
2023/06/10 06:13:51;;;;;;;4.25;3.55;;;;;;;;;;4934667;28;20047;-82
2023/06/10 06:16:38;;;;;;;6.75;3.95;;;;;;;;;;4942457;29;20403;-83
2023/06/10 06:19:23;;;;;;;6.75;4.07;;;;;;;;;;4946759;28;20043;-83
2023/06/10 06:22:08;;;;;;;5.05;3.90;;;;;;;;;;4956423;28;20047;-83
2023/06/10 06:24:53;;;;;;;5.22;3.90;;;;;;;;;;4961291;28;20047;-83
2023/06/10 06:27:39;;;;;;;8.13;3.75;;;;;;;;;;4954893;29;20043;-83
2023/06/10 06:30:24;;;;;;;5.63;3.80;;;;;;;;;;4955724;28;20050;-83
2023/06/10 06:33:10;;;;;;;5.70;3.90;;;;;;;;;;4982543;28;20062;-82
2023/06/10 06:35:55;;;;;;;11.13;3.92;;;;;;;;;;4974656;28;20047;-83
2023/06/10 06:38:41;;;;;;;5.32;3.70;;;;;;;;;;4970978;28;20407;-83
2023/06/10 06:41:27;;;;;;;5.18;3.78;;;;;;;;;;4948525;28;20054;-82
2023/06/10 06:44:12;;;;;;;6.45;3.90;;;;;;;;;;4985208;28;20042;-83
2023/06/10 06:47:01;;;;;;;6.82;3.47;;;;;;;;;;4955837;28;20071;-83
2023/06/10 06:49:47;;;;;;;6.18;3.38;;;;;;;;;;4953320;28;20051;-83
2023/06/10 06:52:32;;;;;;;7.25;3.75;;;;;;;;;;4967054;28;20047;-83
2023/06/10 06:55:17;;;;;;;7.53;3.50;;;;;;;;;;4980055;28;20467;-83
2023/06/10 06:58:04;;;;;;;5.97;3.88;;;;;;;;;;4969574;28;20046;-85
2023/06/10 07:00:51;;;;;;;7.40;3.95;;;;;;;;;;4973869;28;20051;-83
2023/06/10 07:03:37;;;;;;;6.88;4.10;;;;;;;;;;4966782;28;20043;-82
2023/06/10 07:06:23;;;;;;;6.32;3.95;;;;;;;;;;4966119;28;20039;-82
2023/06/10 07:09:19;;;;;;;6.82;3.65;;;;;;;;;;4960431;28;20047;-82
2023/06/10 07:12:06;;;;;;;7.47;3.63;;;;;;;;;;4958535;28;20046;-83
2023/06/10 07:14:52;;;;;;;7.43;3.47;;;;;;;;;;4945017;29;20408;-83
2023/06/10 07:17:37;;;;;;;4.57;3.10;;;;;;;;;;4962689;28;20050;-82
2023/06/10 07:20:23;;;;;;;5.28;3.60;;;;;;;;;;4966285;28;20047;-82
2023/06/10 07:23:08;;;;;;;5.82;3.65;;;;;;;;;;4962398;28;20043;-84
2023/06/10 07:25:54;;;;;;;4.50;3.00;;;;;;;;;;4945359;29;20443;-83
2023/06/10 07:28:42;;;;;;;3.42;2.90;;;;;;;;;;4959021;28;20046;-88
2023/06/10 07:31:29;;;;;;;4.35;3.53;;;;;;;;;;4965907;28;20415;-82
2023/06/10 07:34:14;;;;;;;4.57;3.20;;;;;;;;;;4972402;28;20484;-82
2023/06/10 07:37:00;;;;;;;4.63;2.95;;;;;;;;;;4966554;28;20058;-82
2023/06/10 07:39:45;;;;;;;6.00;2.78;;;;;;;;;;4986056;28;20042;-83
2023/06/10 07:42:34;;;;;;;5.47;3.47;;;;;;;;;;4972584;28;20038;-81
2023/06/10 07:45:19;;;;;;;5.43;2.80;;;;;;;;;;4986299;28;20042;-83
2023/06/10 07:48:04;;;;;;;6.13;3.28;;;;;;;;;;4983028;28;20488;-84
2023/06/10 07:50:52;;;;;;;5.35;3.30;;;;;;;;;;4997177;28;20046;-82
2023/06/10 07:53:37;;;;;;;3.50;2.85;;;;;;;;;;4982959;28;20046;-82
2023/06/10 07:56:22;;;;;;;3.53;3.00;;;;;;;;;;4989447;28;20039;-82
2023/06/10 07:59:08;;;;;;;3.55;3.17;;;;;;;;;;4970727;28;20047;-82
2023/06/10 08:01:53;;;;;;;3.95;3.10;;;;;;;;;;4956346;28;20047;-82
2023/06/10 08:04:38;;;;;;;5.97;3.55;;;;;;;;;;4955964;28;20047;-84
2023/06/10 08:07:24;;;;;;;4.68;3.35;;;;;;;;;;4957429;28;20043;-82
2023/06/10 08:10:09;;;;;;;5.30;3.80;;;;;;;;;;4969450;28;20109;-82
2023/06/10 08:12:55;;;;;;;6.00;3.53;;;;;;;;;;4976494;28;20058;-82
2023/06/10 08:15:41;;;;;;;8.95;4.50;;;;;;;;;;4955925;28;20913;-82
2023/06/10 08:18:26;;;;;;;5.40;3.67;;;;;;;;;;4957067;29;20051;-82
2023/06/10 08:21:12;;;;;;;5.43;3.83;;;;;;;;;;4958265;29;20055;-82
2023/06/10 08:23:57;;;;;;;6.38;4.00;;;;;;;;;;4956081;28;20051;-83
2023/06/10 08:26:42;;;;;;;7.00;4.75;;;;;;;;;;4963103;28;20051;-84
2023/06/10 08:29:27;;;;;;;7.00;4.68;;;;;;;;;;4963461;28;20047;-81
2023/06/10 08:32:13;;;;;;;6.82;4.97;;;;;;;;;;4973032;28;20050;-81
2023/06/10 08:34:58;;;;;;;6.25;4.68;;;;;;;;;;4969324;28;20038;-81
2023/06/10 08:37:44;;;;;;;4.90;4.40;;;;;;;;;;4976824;28;20042;-82
2023/06/10 08:40:30;;;;;;;7.07;4.68;;;;;;;;;;4981507;28;20050;-83
2023/06/10 08:43:39;;;;;;;6.15;4.78;;;;;;;;;;4968828;28;20400;-82
2023/06/10 08:46:25;;;;;;;7.35;5.10;;;;;;;;;;4968517;28;20043;-82
2023/06/10 08:49:15;;;;;;;7.22;5.60;;;;;;;;;;4962696;28;20043;-83
2023/06/10 08:52:02;;;;;;;8.63;4.90;;;;;;;;;;4967478;28;20035;-84
2023/06/10 08:54:58;;;;;;;8.95;4.93;;;;;;;;;;4982259;28;20042;-82
2023/06/10 08:57:45;;;;;;;11.07;5.20;;;;;;;;;;4948401;28;20504;-82
2023/06/10 09:00:31;;;;;;;9.50;5.78;;;;;;;;;;4949400;28;20036;-84
2023/06/10 09:03:18;;;;;;;8.70;4.80;;;;;;;;;;4949908;28;20043;-83
2023/06/10 09:06:07;;;;;;;9.10;5.53;;;;;;;;;;4943446;29;20043;-85
2023/06/10 09:08:52;;;;;;;5.75;4.25;;;;;;;;;;4962531;28;20047;-83
2023/06/10 09:11:38;;;;;;;6.32;5.22;;;;;;;;;;4935691;28;20040;-83
2023/06/10 09:14:24;;;;;;;6.63;4.80;;;;;;;;;;4957347;28;20058;-81
2023/06/10 09:17:10;;;;;;;6.15;5.03;;;;;;;;;;4968573;28;20051;-82
2023/06/10 09:19:56;;;;;;;6.10;4.78;;;;;;;;;;4977095;28;20110;-83
2023/06/10 09:22:42;;;;;;;9.88;5.22;;;;;;;;;;4961798;28;20411;-83
2023/06/10 09:25:38;;;;;;;6.63;4.72;;;;;;;;;;4962102;28;20042;-83
2023/06/10 09:28:24;;;;;;;5.25;4.50;;;;;;;;;;4980923;28;20408;-82
2023/06/10 09:31:10;;;;;;;7.38;5.00;;;;;;;;;;4975581;28;20043;-80
2023/06/10 09:34:04;;;;;;;6.95;4.47;;;;;;;;;;4961703;28;20063;-80
2023/06/10 09:36:49;;;;;;;;;;;;;;;;;;4965576;28;20051;-80
2023/06/10 09:39:34;;;;;;;7.45;5.05;;;;;;;;;;4968523;28;19918;-81
2023/06/10 09:42:20;;;;;;;6.80;5.20;;;;;;;;;;4975951;28;20043;-81
2023/06/10 09:45:07;;;;;;;7.53;5.60;;;;;;;;;;4954634;28;20484;-81
2023/06/10 09:47:53;;;;;;;6.88;5.65;;;;;;;;;;4961931;28;20054;-82
2023/06/10 09:50:46;;;;;;;5.70;4.88;;;;;;;;;;4967578;28;20054;-81
2023/06/10 09:53:33;;;;;;;5.55;4.95;;;;;;;;;;4960245;28;20051;-80
2023/06/10 09:56:19;;;;;;;10.85;6.32;;;;;;;;;;4975656;28;20043;-82
2023/06/10 09:59:07;;;;;;;120.85;66.63;;;;;;;;;;4981482;28;20047;-80
2023/06/10 10:01:55;;;;;;;31.45;17.95;;;;;;;;;;4967439;28;20050;-84
2023/06/10 10:04:40;;;;;;;7.43;5.25;;;;;;;;;;4981000;28;20046;-81
2023/06/10 10:07:25;;;;;;;7.53;5.55;;;;;;;;;;4954020;28;20038;-83
2023/06/10 10:10:13;;;;;;;22.90;13.40;;;;;;;;;;4967041;28;20043;-83
2023/06/10 10:13:00;;;;;;;10.30;6.80;;;;;;;;;;4967420;28;20042;-82
2023/06/10 10:15:46;;;;;;;6.20;5.05;;;;;;;;;;4967785;28;20042;-82
2023/06/10 10:18:31;;;;;;;5.85;4.70;;;;;;;;;;4967146;28;20480;-82
2023/06/10 10:21:21;;;;;;;6.22;4.60;;;;;;;;;;4961097;28;20046;-82
2023/06/10 10:24:15;;;;;;;6.90;4.68;;;;;;;;;;4967120;28;20042;-84
2023/06/10 10:27:05;;;;;;;6.30;4.60;;;;;;;;;;4952996;28;20492;-83
2023/06/10 10:29:53;;;;;;;5.50;4.90;;;;;;;;;;4966990;28;20050;-83
2023/06/10 10:32:52;;;;;;;6.03;5.00;;;;;;;;;;4966919;28;20051;-83
2023/06/10 10:35:39;;;;;;;5.82;5.10;;;;;;;;;;4968048;28;20042;-83
2023/06/10 10:38:24;;;;;;;6.80;5.78;;;;;;;;;;4974091;28;20043;-83
2023/06/10 10:41:11;;;;;;;6.70;5.63;;;;;;;;;;4975247;28;20042;-83
2023/06/10 10:43:56;;;;;;;7.78;5.47;;;;;;;;;;4960703;28;20043;-83
2023/06/10 10:46:44;;;;;;;6.75;5.60;;;;;;;;;;4960327;28;20042;-83
2023/06/10 10:49:30;;;;;;;9.18;5.38;;;;;;;;;;4960420;28;20050;-82
2023/06/10 10:52:16;;;;;;;9.15;5.35;;;;;;;;;;4960009;28;20047;-82
2023/06/10 10:55:12;;;;;;;7.70;5.45;;;;;;;;;;4954108;28;20059;-82
2023/06/10 10:58:02;;;;;;;7.60;5.28;;;;;;;;;;4966808;28;20043;-81
2023/06/10 11:00:49;;;;;;;7.13;5.97;;;;;;;;;;4959217;28;20046;-82
2023/06/10 11:03:42;;;;;;;9.60;6.05;;;;;;;;;;4974791;28;20491;-81
2023/06/10 11:06:28;;;;;;;6.75;6.05;;;;;;;;;;4973673;28;20042;-82
2023/06/10 11:09:28;;;;;;;9.15;5.78;;;;;;;;;;4955471;28;20483;-83
2023/06/10 11:12:23;;;;;;;7.55;5.88;;;;;;;;;;4965693;28;20047;-83
2023/06/10 11:15:09;;;;;;;7.28;6.15;;;;;;;;;;4979512;28;20126;-83
2023/06/10 11:18:31;;;;;;;7.30;5.60;;;;;;;;;;4966877;28;20055;-83
2023/06/10 11:21:17;;;;;;;9.13;5.93;;;;;;;;;;4962186;28;20051;-82
2023/06/10 11:24:12;;;;;;;10.20;6.68;;;;;;;;;;4978995;28;20050;-83
2023/06/10 11:27:17;;;;;;;8.95;6.10;;;;;;;;;;4978434;28;20050;-81
2023/06/10 11:30:05;;;;;;;7.72;5.78;;;;;;;;;;4970703;28;20396;-81
2023/06/10 11:32:52;;;;;;;7.43;5.90;;;;;;;;;;4964325;28;20055;-82
2023/06/10 11:35:38;;;;;;;7.93;6.40;;;;;;;;;;4978043;28;20043;-81
2023/06/10 11:38:26;;;;;;;10.45;5.45;;;;;;;;;;4977113;28;20050;-82
2023/06/10 11:41:13;;;;;;;9.27;6.15;;;;;;;;;;4960338;28;20051;-81
2023/06/10 11:44:09;;;;;;;9.35;5.78;;;;;;;;;;4958739;28;20051;-82
2023/06/10 11:47:00;;;;;;;8.60;5.38;;;;;;;;;;4977418;28;20051;-82
2023/06/10 11:49:46;;;;;;;6.43;4.97;;;;;;;;;;4976882;28;20051;-83
2023/06/10 11:52:33;;;;;;;5.80;5.05;;;;;;;;;;4957386;28;20044;-83
2023/06/10 11:55:19;;;;;;;6.38;4.28;;;;;;;;;;4958659;29;20484;-83
2023/06/10 11:58:05;;;;;;;5.82;4.93;;;;;;;;;;4937514;28;20485;-83
2023/06/10 12:00:58;;;;;;;8.05;6.22;;;;;;;;;;4944975;29;20044;-82
2023/06/10 12:03:43;;;;;;;8.93;5.78;;;;;;;;;;4968757;28;20054;-81
2023/06/10 12:06:48;;;;;;;6.93;5.80;;;;;;;;;;4990341;28;20046;-82
2023/06/10 12:09:33;;;;;;;5.90;5.28;;;;;;;;;;4983106;28;20046;-82
2023/06/10 12:12:19;;;;;;;7.28;5.88;;;;;;;;;;4983238;28;20047;-83
2023/06/10 12:15:05;;;;;;;6.05;5.43;;;;;;;;;;4970252;28;20047;-81
2023/06/10 12:17:52;;;;;;;9.02;5.80;;;;;;;;;;4956936;29;20052;-82
2023/06/10 12:20:37;;;;;;;9.07;5.82;;;;;;;;;;4968592;28;20054;-82
2023/06/10 12:23:23;;;;;;;6.00;5.22;;;;;;;;;;4955202;28;20483;-83
2023/06/10 12:26:09;;;;;;;6.57;5.88;;;;;;;;;;4959508;28;20047;-83
2023/06/10 12:28:54;;;;;;;5.80;5.03;;;;;;;;;;4983341;28;20400;-81
2023/06/10 12:32:05;;;;;;;6.90;5.15;;;;;;;;;;4976923;28;20047;-81
2023/06/10 12:35:03;;;;;;;6.22;5.53;;;;;;;;;;4963036;28;20043;-81
2023/06/10 12:38:03;;;;;;;6.10;5.47;;;;;;;;;;4969842;28;20050;-82
2023/06/10 12:40:49;;;;;;;7.55;5.32;;;;;;;;;;4981509;28;20511;-83
2023/06/10 12:43:34;;;;;;;9.07;5.47;;;;;;;;;;4978538;28;20046;-82
2023/06/10 12:46:19;;;;;;;6.93;5.75;;;;;;;;;;4963246;28;20483;-83
2023/06/10 12:49:05;;;;;;;7.60;5.53;;;;;;;;;;4962762;28;20487;-82
2023/06/10 12:51:51;;;;;;;7.70;6.00;;;;;;;;;;4976944;28;20043;-82
2023/06/10 12:54:37;;;;;;;6.40;5.35;;;;;;;;;;4985804;28;20046;-82
2023/06/10 12:57:22;;;;;;;6.00;5.07;;;;;;;;;;4975021;28;20042;-83
2023/06/10 13:00:10;;;;;;;7.30;5.38;;;;;;;;;;4976188;28;20035;-83
2023/06/10 13:03:01;;;;;;;7.72;5.13;;;;;;;;;;4964982;28;20050;-83
2023/06/10 13:05:47;;;;;;;5.10;4.60;;;;;;;;;;4976272;28;20043;-82
2023/06/10 13:08:32;;;;;;;6.03;4.90;;;;;;;;;;4963482;28;20038;-82
2023/06/10 13:11:18;;;;;;;6.20;4.88;;;;;;;;;;4964905;28;20047;-82
2023/06/10 13:14:04;;;;;;;8.00;5.20;;;;;;;;;;4974193;28;20039;-81
2023/06/10 13:16:49;;;;;;;5.10;4.32;;;;;;;;;;4976575;28;20046;-80
2023/06/10 13:19:35;;;;;;;3.45;3.15;;;;;;;;;;4978985;28;20035;-85
2023/06/10 13:22:21;;;;;;;3.35;3.05;;;;;;;;;;4987065;28;20054;-82
2023/06/10 13:25:08;;;;;;;3.47;2.97;;;;;;;;;;4987222;28;20488;-81
2023/06/10 13:27:54;;;;;;;2.78;2.58;;;;;;;;;;4960951;28;20392;-84
2023/06/10 13:30:39;;;;;;;3.33;2.83;;;;;;;;;;4958693;28;20051;-80
2023/06/10 13:33:25;;;;;;;4.18;2.53;;;;;;;;;;4965748;28;20051;-83
2023/06/10 13:36:10;;;;;;;4.07;2.80;;;;;;;;;;4952832;28;20054;-82
2023/06/10 13:38:56;;;;;;;3.40;3.10;;;;;;;;;;4968780;28;20043;-82
2023/06/10 13:41:41;;;;;;;6.13;2.88;;;;;;;;;;4961561;28;20051;-81
2023/06/10 13:44:26;;;;;;;3.10;2.80;;;;;;;;;;4975254;28;20423;-83
2023/06/10 13:47:12;;;;;;;3.38;2.95;;;;;;;;;;4961629;28;20050;-83
2023/06/10 13:49:57;;;;;;;3.90;3.50;;;;;;;;;;4959801;28;20055;-82
2023/06/10 13:52:43;;;;;;;4.00;3.60;;;;;;;;;;4975303;28;20043;-80
2023/06/10 13:55:30;;;;;;;4.28;3.40;;;;;;;;;;4967692;28;20043;-81
2023/06/10 13:58:18;;;;;;;3.95;3.55;;;;;;;;;;4961869;28;20047;-82
2023/06/10 14:01:03;;;;;;;3.42;3.13;;;;;;;;;;4967406;28;20055;-82
2023/06/10 14:03:49;;;;;;;4.35;3.05;;;;;;;;;;4975861;28;20488;-82
2023/06/10 14:06:34;;;;;;;3.78;3.00;;;;;;;;;;4968005;28;20050;-81
2023/06/10 14:09:20;;;;;;;3.55;3.25;;;;;;;;;;4975618;28;20047;-81
2023/06/10 14:12:07;;;;;;;4.15;3.20;;;;;;;;;;4975487;28;20043;-81
2023/06/10 14:14:51;;;;;;;3.42;3.13;;;;;;;;;;4955416;28;20051;-82
2023/06/10 14:17:37;;;;;;;9.52;3.60;;;;;;;;;;4974991;28;20051;-79
2023/06/10 14:20:25;;;;;;;5.45;3.42;;;;;;;;;;4967714;28;20483;-79
2023/06/10 14:23:10;;;;;;;9.07;4.18;;;;;;;;;;4960783;28;20046;-82
2023/06/10 14:25:55;;;;;;;6.20;3.47;;;;;;;;;;4959765;28;20047;-83
2023/06/10 14:28:41;;;;;;;4.05;3.50;;;;;;;;;;4967681;28;20043;-82
2023/06/10 14:31:27;;;;;;;4.47;3.58;;;;;;;;;;4952042;28;20038;-82
2023/06/10 14:34:13;;;;;;;3.83;3.47;;;;;;;;;;4975052;28;20051;-81
2023/06/10 14:37:00;;;;;;;4.53;3.75;;;;;;;;;;4940709;28;20047;-81
2023/06/10 14:39:46;;;;;;;6.38;3.78;;;;;;;;;;4958346;28;20403;-81
2023/06/10 14:42:34;;;;;;;5.25;3.45;;;;;;;;;;4980648;28;20491;-81
2023/06/10 14:45:20;;;;;;;4.45;3.58;;;;;;;;;;4975164;28;20038;-81
2023/06/10 14:48:07;;;;;;;4.32;3.92;;;;;;;;;;4967217;28;20050;-81
2023/06/10 14:50:55;;;;;;;3.60;3.30;;;;;;;;;;4974755;28;20479;-82
2023/06/10 14:53:40;;;;;;;4.07;3.67;;;;;;;;;;4975136;28;20050;-81
2023/06/10 14:56:25;;;;;;;4.55;3.63;;;;;;;;;;4960342;28;20039;-81
2023/06/10 14:59:11;;;;;;;4.95;4.03;;;;;;;;;;4966575;28;20046;-81
2023/06/10 15:01:57;;;;;;;5.30;3.90;;;;;;;;;;4965241;28;20047;-80
2023/06/10 15:04:42;;;;;;;4.75;3.75;;;;;;;;;;4943113;29;20051;-81
2023/06/10 15:07:27;;;;;;;3.75;3.45;;;;;;;;;;4977524;28;20400;-81
2023/06/10 15:10:13;;;;;;;5.68;4.07;;;;;;;;;;4977514;28;20055;-82
2023/06/10 15:12:59;;;;;;;4.45;3.97;;;;;;;;;;4958075;28;20043;-83
2023/06/10 15:15:45;;;;;;;6.40;4.15;;;;;;;;;;4964563;28;20046;-82
2023/06/10 15:18:41;;;;;;;7.63;4.05;;;;;;;;;;4958721;28;20050;-84
2023/06/10 15:21:26;;;;;;;5.35;4.07;;;;;;;;;;4982219;28;20047;-81
2023/06/10 15:24:12;;;;;;;6.05;4.05;;;;;;;;;;4980017;28;20046;-83
2023/06/10 15:26:57;;;;;;;5.90;3.70;;;;;;;;;;4974235;28;20046;-80
2023/06/10 15:29:43;;;;;;;4.80;4.28;;;;;;;;;;4966757;28;20203;-80
2023/06/10 15:32:28;;;;;;;13.77;9.73;;;;;;;;;;4974378;28;20051;-80
2023/06/10 15:35:14;;;;;;;4.30;3.90;;;;;;;;;;4974929;28;20046;-83
2023/06/10 15:38:00;;;;;;;6.13;4.20;;;;;;;;;;4960520;28;20051;-84
2023/06/10 15:40:45;;;;;;;4.43;3.80;;;;;;;;;;4974351;28;20043;-80
2023/06/10 15:43:31;;;;;;;3.97;3.58;;;;;;;;;;4960557;28;20046;-81
2023/06/10 15:46:17;;;;;;;3.78;3.45;;;;;;;;;;4952185;28;20487;-82
2023/06/10 15:49:03;;;;;;;4.35;3.95;;;;;;;;;;4951419;28;20059;-79
2023/06/10 15:51:48;;;;;;;4.65;3.90;;;;;;;;;;4969067;28;20043;-81
2023/06/10 15:54:33;;;;;;;9.13;4.60;;;;;;;;;;4970176;28;20051;-81
2023/06/10 15:57:19;;;;;;;5.25;3.97;;;;;;;;;;4973493;28;20484;-81
2023/06/10 16:00:06;;;;;;;3.67;3.22;;;;;;;;;;4988115;28;20046;-80
2023/06/10 16:02:51;;;;;;;8.75;3.88;;;;;;;;;;4979291;28;20050;-82
2023/06/10 16:05:37;;;;;;;5.90;3.60;;;;;;;;;;4993555;28;20042;-82
2023/06/10 16:08:22;;;;;;;5.07;3.38;;;;;;;;;;4989136;28;20045;-80
2023/06/10 16:11:08;;;;;;;6.32;4.20;;;;;;;;;;4997276;28;20054;-80
2023/06/10 16:13:54;;;;;;;8.35;4.70;;;;;;;;;;5002838;28;20050;-81
2023/06/10 16:16:39;;;;;;;10.48;4.65;;;;;;;;;;4997260;28;20055;-79
2023/06/10 16:19:25;;;;;;;8.35;4.70;;;;;;;;;;4949929;28;20051;-80
2023/06/10 16:22:10;;;;;;;9.52;4.75;;;;;;;;;;4963605;28;20051;-81
2023/06/10 16:24:56;;;;;;;7.05;4.40;;;;;;;;;;4973162;28;20047;-80
2023/06/10 16:27:41;;;;;;;5.82;4.05;;;;;;;;;;4962956;28;20047;-80
2023/06/10 16:30:27;;;;;;;6.25;4.35;;;;;;;;;;4968407;28;20050;-82
2023/06/10 16:33:13;;;;;;;5.38;3.92;;;;;;;;;;4977239;28;20043;-82
2023/06/10 16:35:59;;;;;;;4.38;3.97;;;;;;;;;;4956877;29;20035;-81
2023/06/10 16:38:46;;;;;;;10.18;4.50;;;;;;;;;;4974497;28;20054;-80
2023/06/10 16:41:31;;;;;;;6.40;4.40;;;;;;;;;;4958081;29;20054;-80